Time;durP1;ratioP1;P1;durP2;ratioP2;P2;SDS_P1;SDS_P2;PMS_P1;PMS_P2;Temp;Humidity;BMP_temperature;BMP_pressure;BME280_temperature;BME280_humidity;BME280_pressure;Samples;Min_cycle;Max_cycle;Signal;HPM_P1;HPM_P2
2022/06/03 00:00:20;;;;;;;;;4.00;3.25;;;;;20.53;33.17;100892.41;5093883;27;45872;-59
2022/06/03 00:03:29;;;;;;;;;3.00;3.00;;;;;20.48;33.66;100885.59;5117259;27;45516;-59
2022/06/03 00:06:32;;;;;;;;;6.75;4.00;;;;;20.48;33.60;100890.91;5090006;27;45470;-59
2022/06/03 00:09:07;;;;;;;;;3.00;3.00;;;;;20.45;33.08;100895.56;5110675;27;46137;-59
2022/06/03 00:11:57;;;;;;;;;2.00;2.00;;;;;20.41;33.44;100886.94;5099561;27;45857;-60
2022/06/03 00:14:44;;;;;;;;;4.00;4.00;;;;;20.38;33.69;100887.16;5117499;27;45591;-60
2022/06/03 00:17:39;;;;;;;;;3.00;3.00;;;;;20.36;33.62;100881.09;5104051;27;45375;-60
2022/06/03 00:20:38;;;;;;;;;5.00;4.00;;;;;20.35;33.72;100876.72;5094933;27;46294;-61
2022/06/03 00:23:12;;;;;;;;;3.00;3.00;;;;;20.33;33.96;100875.97;5106048;27;45842;-60
2022/06/03 00:26:05;;;;;;;;;6.25;3.25;;;;;20.31;33.60;100877.91;5115368;27;45476;-60
2022/06/03 00:28:36;;;;;;;;;5.50;4.00;;;;;20.27;33.67;100877.25;5109418;27;45561;-60
2022/06/03 00:31:11;;;;;;;;;5.25;3.25;;;;;20.24;33.78;100874.78;5118411;27;46234;-60
2022/06/03 00:33:36;;;;;;;;;3.00;3.00;;;;;20.20;33.91;100883.91;5121080;27;45306;-59
2022/06/03 00:36:23;;;;;;;;;3.00;3.00;;;;;20.17;33.88;100876.13;5105491;27;45517;-59
2022/06/03 00:39:10;;;;;;;;;3.00;3.00;;;;;20.16;33.86;100878.88;5107712;27;45355;-58
2022/06/03 00:42:05;;;;;;;;;3.50;3.00;;;;;20.12;34.14;100872.91;5091182;27;46373;-58
2022/06/03 00:44:54;;;;;;;;;3.00;3.00;;;;;20.10;34.31;100873.00;5112707;27;45283;-58
2022/06/03 00:47:47;;;;;;;;;4.50;4.50;;;;;20.09;34.22;100873.97;5091162;27;45289;-59
2022/06/03 00:50:25;;;;;;;;;5.00;3.50;;;;;20.07;34.68;100869.72;5108480;27;45463;-59
2022/06/03 00:53:05;;;;;;;;;7.25;4.00;;;;;20.04;34.52;100872.56;5117825;27;45607;-59
2022/06/03 00:55:56;;;;;;;;;4.50;3.25;;;;;20.03;34.74;100874.38;5111322;27;45366;-59
2022/06/03 00:58:39;;;;;;;;;4.00;4.00;;;;;20.00;34.76;100877.22;5109189;27;45373;-59
2022/06/03 01:01:05;;;;;;;;;4.00;4.00;;;;;20.00;34.43;100873.72;5105996;27;45418;-61
2022/06/03 01:03:49;;;;;;;;;5.00;4.33;;;;;19.98;34.69;100878.28;5116405;27;45445;-59
2022/06/03 01:06:23;;;;;;;;;4.25;4.25;;;;;19.94;34.86;100872.31;5115048;27;45912;-59
2022/06/03 01:09:27;;;;;;;;;6.25;4.75;;;;;19.93;34.49;100875.91;5108636;27;45250;-59
2022/06/03 01:12:08;;;;;;;;;5.50;4.50;;;;;19.90;34.59;100879.63;5093019;27;45486;-59
2022/06/03 01:15:03;;;;;;;;;5.75;5.00;;;;;19.88;34.75;100875.34;5086136;27;45390;-59
2022/06/03 01:17:48;;;;;;;;;6.00;6.00;;;;;19.83;34.62;100870.34;5082484;27;46485;-59
2022/06/03 01:20:17;;;;;;;;;5.75;4.25;;;;;19.78;34.90;100864.47;5095432;27;45282;-59
2022/06/03 01:22:48;;;;;;;;;6.00;4.00;;;;;19.73;34.71;100869.19;5104772;27;45507;-60
2022/06/03 01:25:24;;;;;;;;;5.50;4.25;;;;;19.68;34.97;100874.78;5116256;27;45479;-59
2022/06/03 01:28:21;;;;;;;;;4.75;4.75;;;;;19.61;34.80;100870.81;5103487;27;45789;-59
2022/06/03 01:31:32;;;;;;;;;4.00;3.00;;;;;19.56;35.23;100867.56;5107058;27;45476;-59
2022/06/03 01:34:17;;;;;;;;;4.25;3.25;;;;;19.50;34.74;100868.81;5087608;27;45998;-58
2022/06/03 01:36:51;;;;;;;;;3.50;3.50;;;;;19.45;35.26;100870.06;5116943;27;45284;-59
2022/06/03 01:39:29;;;;;;;;;4.00;4.00;;;;;19.40;35.13;100872.13;5113647;27;45924;-59
2022/06/03 01:41:58;;;;;;;;;5.00;3.00;;;;;19.34;35.11;100866.25;5094092;27;45308;-59
2022/06/03 01:44:26;;;;;;;;;5.00;3.50;;;;;19.31;35.53;100862.94;5121980;27;45449;-59
2022/06/03 01:47:14;;;;;;;;;4.00;4.00;;;;;19.27;35.42;100862.28;5108883;27;45464;-58
2022/06/03 01:49:55;;;;;;;;;4.00;3.50;;;;;19.25;35.73;100858.03;5090580;27;45676;-59
2022/06/03 01:52:33;;;;;;;;;5.00;5.00;;;;;19.23;35.92;100854.59;5111516;27;45473;-58
2022/06/03 01:55:36;;;;;;;;;3.75;3.75;;;;;19.21;35.71;100849.41;5111279;27;45302;-59
2022/06/03 01:58:15;;;;;;;;;4.00;2.50;;;;;19.18;35.76;100838.97;5105699;27;45348;-58
2022/06/03 02:00:48;;;;;;;;;3.50;3.50;;;;;19.18;36.11;100846.09;5100500;27;45847;-59
2022/06/03 02:03:13;;;;;;;;;4.50;3.50;;;;;19.15;35.97;100844.47;5089747;27;45489;-59
2022/06/03 02:05:59;;;;;;;;;3.00;3.00;;;;;19.13;36.12;100849.84;5115881;27;45243;-60
2022/06/03 02:08:49;;;;;;;;;5.00;5.00;;;;;19.13;36.22;100841.06;5113651;27;46168;-59
2022/06/03 02:11:33;;;;;;;;;5.00;4.00;;;;;19.11;35.98;100835.00;5116194;27;45819;-59
2022/06/03 02:14:35;;;;;;;;;4.00;4.00;;;;;19.08;36.45;100824.56;5113752;27;45377;-60
2022/06/03 02:17:22;;;;;;;;;6.75;4.00;;;;;19.05;36.08;100822.97;5113494;27;45271;-60
2022/06/03 02:20:34;;;;;;;;;6.50;4.75;;;;;19.04;35.80;100815.09;5117072;27;45468;-59
2022/06/03 02:23:15;;;;;;;;;3.75;3.75;;;;;18.97;36.11;100815.47;5030669;28;45766;-59
2022/06/03 02:26:07;;;;;;;;;3.00;3.00;;;;;18.96;36.08;100807.59;5115533;27;46516;-58
2022/06/03 02:28:51;;;;;;;;;3.25;3.25;;;;;18.90;36.11;100803.53;5112800;27;45520;-58
2022/06/03 02:31:18;;;;;;;;;5.00;3.00;;;;;18.86;36.54;100802.00;5102067;27;45380;-59
2022/06/03 02:34:07;;;;;;;;;4.25;3.00;;;;;18.82;36.46;100800.47;5117009;27;45317;-59
2022/06/03 02:36:58;;;;;;;;;5.00;3.00;;;;;18.75;36.61;100794.69;5117277;27;45303;-59
2022/06/03 02:39:42;;;;;;;;;3.75;3.25;;;;;18.70;36.60;100795.91;5089444;27;45484;-58
2022/06/03 02:42:24;;;;;;;;;3.75;3.75;;;;;18.63;36.88;100790.13;5088793;27;45318;-59
2022/06/03 02:45:07;;;;;;;;;2.00;2.00;;;;;18.61;36.61;100786.72;5092209;27;45364;-59
2022/06/03 02:47:38;;;;;;;;;6.50;4.00;;;;;18.58;36.99;100787.72;5090120;27;45346;-58
2022/06/03 02:50:22;;;;;;;;;4.00;3.50;;;;;18.55;36.89;100792.34;5098374;27;45512;-59
2022/06/03 02:53:09;;;;;;;;;4.25;3.00;;;;;18.48;37.13;100791.00;5089009;27;45430;-59
2022/06/03 02:55:55;;;;;;;;;5.50;3.00;;;;;18.44;37.47;100781.56;5090012;27;45886;-59
2022/06/03 02:59:03;;;;;;;;;4.00;2.25;;;;;18.42;37.43;100780.78;5098104;27;45453;-59
2022/06/03 03:01:59;;;;;;;;;4.50;4.00;;;;;18.40;37.55;100780.88;5018280;27;45778;-58
2022/06/03 03:05:01;;;;;;;;;4.25;3.25;;;;;18.36;37.05;100780.22;5096573;27;46115;-59
2022/06/03 03:07:42;;;;;;;;;6.25;4.00;;;;;18.33;37.70;100779.53;5080693;27;45662;-59
2022/06/03 03:10:42;;;;;;;;;4.00;4.00;;;;;18.29;37.52;100780.63;5093022;27;45737;-58
2022/06/03 03:13:49;;;;;;;;;4.75;3.00;;;;;18.23;37.71;100768.63;5085819;27;45252;-59
2022/06/03 03:16:47;;;;;;;;;4.25;4.25;;;;;18.21;37.20;100770.50;5029397;28;46238;-58
2022/06/03 03:19:51;;;;;;;;;6.00;4.00;;;;;18.19;37.73;100772.41;5090416;27;45428;-60
2022/06/03 03:22:35;;;;;;;;;4.75;4.75;;;;;18.17;37.76;100780.44;5091717;27;45751;-59
2022/06/03 03:25:18;;;;;;;;;3.00;3.00;;;;;18.16;38.01;100777.84;5094879;27;45597;-60
2022/06/03 03:28:02;;;;;;;;;4.75;4.00;;;;;18.15;38.13;100781.44;5091376;27;46971;-59
2022/06/03 03:30:28;;;;;;;;;6.00;3.00;;;;;18.13;38.06;100781.56;5110367;27;45895;-58
2022/06/03 03:33:17;;;;;;;;;4.50;3.25;;;;;18.14;38.19;100791.19;5089285;27;45350;-59
2022/06/03 03:35:46;;;;;;;;;5.75;4.00;;;;;18.13;38.29;100791.28;5089704;27;45377;-58
2022/06/03 03:38:36;;;;;;;;;7.00;5.50;;;;;18.12;38.10;100789.59;5097121;27;46338;-58
2022/06/03 03:41:46;;;;;;;;;6.25;4.50;;;;;18.09;38.38;100777.34;5109189;27;45743;-59
2022/06/03 03:44:27;;;;;;;;;9.00;5.00;;;;;18.08;38.53;100780.09;5072222;27;45362;-59
2022/06/03 03:47:25;;;;;;;;;4.25;4.00;;;;;18.06;38.16;100774.91;5095501;27;45518;-59
2022/06/03 03:50:14;;;;;;;;;4.00;4.00;;;;;18.02;38.38;100776.00;5082771;27;46114;-59
2022/06/03 03:52:49;;;;;;;;;4.00;4.00;;;;;18.00;38.55;100768.16;5114062;27;45661;-59
2022/06/03 03:55:40;;;;;;;;;3.75;2.75;;;;;18.00;38.49;100773.44;5106025;27;45310;-58
2022/06/03 03:58:29;;;;;;;;;4.50;4.50;;;;;18.01;38.34;100769.88;5101346;27;45273;-59
2022/06/03 04:01:27;;;;;;;;;6.00;4.00;;;;;18.00;38.63;100777.91;5097992;27;45547;-59
2022/06/03 04:04:07;;;;;;;;;4.75;4.00;;;;;17.98;38.58;100775.31;5080744;27;46087;-60
2022/06/03 04:07:21;;;;;;;;;4.75;4.25;;;;;17.98;38.52;100777.97;5113315;27;45390;-59
2022/06/03 04:10:24;;;;;;;;;4.75;4.75;;;;;17.98;38.37;100790.38;5103130;27;45619;-59
2022/06/03 04:13:14;;;;;;;;;3.50;3.25;;;;;17.95;38.83;100790.53;5105991;27;45387;-59
2022/06/03 04:16:24;;;;;;;;;3.75;3.75;;;;;17.95;38.44;100785.25;5115243;27;45328;-59
2022/06/03 04:19:26;;;;;;;;;6.50;5.00;;;;;17.96;38.68;100784.31;5117751;27;45564;-59
2022/06/03 04:22:30;;;;;;;;;5.75;4.75;;;;;17.96;38.30;100779.03;5116233;27;45214;-59
2022/06/03 04:25:18;;;;;;;;;6.50;4.50;;;;;17.96;38.61;100781.66;5039880;27;47266;-59
2022/06/03 04:28:21;;;;;;;;;4.00;4.00;;;;;17.96;38.78;100781.66;5072432;27;45483;-59
2022/06/03 04:31:13;;;;;;;;;4.00;4.00;;;;;17.97;38.97;100778.94;5112197;27;45441;-59
2022/06/03 04:33:51;;;;;;;;;7.50;6.00;;;;;17.99;39.01;100770.91;5091877;27;45277;-59
2022/06/03 04:36:50;;;;;;;;;4.25;3.75;;;;;18.02;38.63;100778.66;5117689;27;47098;-59
2022/06/03 04:39:28;;;;;;;;;3.25;3.00;;;;;18.03;38.72;100778.56;5105994;27;45692;-59
2022/06/03 04:42:15;;;;;;;;;4.75;4.00;;;;;18.04;38.76;100779.41;5116357;27;45306;-59
2022/06/03 04:45:11;;;;;;;;;6.50;5.25;;;;;18.06;38.29;100780.22;5110464;27;45478;-59
2022/06/03 04:48:05;;;;;;;;;4.25;4.25;;;;;18.10;38.79;100791.47;5113521;27;46244;-59
2022/06/03 04:50:56;;;;;;;;;7.00;6.00;;;;;18.06;38.76;100789.91;5078343;27;45743;-59
2022/06/03 04:53:54;;;;;;;;;6.75;4.25;;;;;18.07;38.50;100787.19;5104227;27;45663;-60
2022/06/03 04:56:22;;;;;;;;;4.25;4.25;;;;;18.07;39.17;100794.28;5092302;27;45425;-59
2022/06/03 04:59:10;;;;;;;;;5.50;5.00;;;;;18.07;38.77;100797.78;5104481;27;46358;-59
2022/06/03 05:02:16;;;;;;;;;4.75;4.25;;;;;18.07;38.89;100796.94;5107783;27;45429;-60
2022/06/03 05:05:00;;;;;;;;;5.75;4.00;;;;;18.09;39.23;100795.06;5111492;27;45577;-60
2022/06/03 05:08:02;;;;;;;;;7.00;4.00;;;;;18.07;39.12;100792.50;5107241;27;45369;-59
2022/06/03 05:11:01;;;;;;;;;7.50;6.00;;;;;18.10;38.99;100786.19;5116333;27;45415;-60
2022/06/03 05:13:45;;;;;;;;;6.00;4.25;;;;;18.12;39.36;100787.78;5113680;27;45462;-59
2022/06/03 05:16:35;;;;;;;;;6.75;4.75;;;;;18.14;39.11;100783.25;5113264;27;45454;-60
2022/06/03 05:19:00;;;;;;;;;6.50;4.25;;;;;18.17;39.27;100776.94;5119387;27;45362;-60
2022/06/03 05:22:00;;;;;;;;;1.33;1.00;;;;;18.17;39.52;100772.47;5110951;27;45389;-60
2022/06/03 05:24:47;;;;;;;;;6.25;4.00;;;;;18.18;39.27;100776.84;5110488;27;45696;-60
2022/06/03 05:27:34;;;;;;;;;7.00;5.50;;;;;18.21;39.37;100786.41;5113763;27;45224;-60
2022/06/03 05:30:32;;;;;;;;;6.75;6.00;;;;;18.25;39.70;100769.38;5108303;27;45498;-60
2022/06/03 05:33:21;;;;;;;;;8.25;5.75;;;;;18.30;39.74;100779.72;5109433;27;46400;-60
2022/06/03 05:36:07;;;;;;;;;3.75;3.75;;;;;18.35;39.69;100775.00;5101577;27;45452;-60
2022/06/03 05:38:43;;;;;;;;;10.25;5.50;;;;;18.40;39.14;100775.59;5116600;27;45514;-60
2022/06/03 05:44:15;;;;;;;;;7.75;6.00;;;;;18.52;39.26;100787.22;5114228;27;45535;-60
2022/06/03 05:46:59;;;;;;;;;12.50;6.00;;;;;18.57;39.58;100783.38;5095722;27;45462;-61
2022/06/03 05:49:48;;;;;;;;;6.00;5.00;;;;;18.64;39.35;100769.75;5113199;27;45423;-61
2022/06/03 05:52:32;;;;;;;;;9.00;6.00;;;;;18.69;39.60;100765.03;5109084;27;45313;-60
2022/06/03 05:55:15;;;;;;;;;7.75;7.00;;;;;18.74;39.66;100761.16;5112430;27;46736;-61
2022/06/03 05:57:59;;;;;;;;;6.50;5.75;;;;;18.82;39.12;100765.16;5095967;27;45865;-61
2022/06/03 06:00:26;;;;;;;;;7.50;6.00;;;;;18.83;38.94;100762.41;5098691;27;45485;-60
2022/06/03 06:03:17;;;;;;;;;8.50;6.50;;;;;18.81;39.06;100760.78;5121367;27;45158;-60
2022/06/03 06:06:06;;;;;;;;;5.00;5.00;;;;;18.83;39.36;100761.56;5097735;27;47686;-60
2022/06/03 06:08:51;;;;;;;;;5.25;5.25;;;;;18.86;39.32;100772.84;5112334;27;45211;-60
2022/06/03 06:11:41;;;;;;;;;7.50;6.00;;;;;18.87;39.07;100776.34;5113582;27;45425;-60
2022/06/03 06:14:28;;;;;;;;;10.50;6.25;;;;;18.89;39.33;100777.97;5076725;27;45421;-60
2022/06/03 06:16:56;;;;;;;;;5.25;5.00;;;;;18.89;39.64;100777.09;5108624;27;45433;-60
2022/06/03 06:19:25;;;;;;;;;6.50;5.50;;;;;18.91;39.73;100770.75;5109224;27;45725;-59
2022/06/03 06:22:19;;;;;;;;;10.00;6.50;;;;;18.92;39.25;100777.75;5106196;27;45342;-59
2022/06/03 06:25:10;;;;;;;;;6.00;6.00;;;;;18.94;39.60;100770.56;5107274;27;45319;-60
2022/06/03 06:27:58;;;;;;;;;7.25;6.00;;;;;18.96;39.66;100778.41;5097545;27;46293;-59
2022/06/03 06:30:42;;;;;;;;;9.00;5.00;;;;;19.00;39.31;100776.44;5111229;27;45948;-59
2022/06/03 06:33:22;;;;;;;;;7.00;5.75;;;;;19.02;39.30;100763.94;5115224;27;45606;-58
2022/06/03 06:36:25;;;;;;;;;8.00;5.75;;;;;19.02;39.75;100766.59;5108406;27;45379;-60
2022/06/03 06:39:07;;;;;;;;;8.00;6.00;;;;;19.03;40.00;100765.63;5113687;27;45496;-60
2022/06/03 06:41:52;;;;;;;;;7.75;5.75;;;;;19.05;39.94;100767.25;5096386;27;45461;-60
2022/06/03 06:44:34;;;;;;;;;9.25;6.00;;;;;19.10;39.65;100770.47;5094737;27;45770;-59
2022/06/03 06:47:41;;;;;;;;;10.00;6.75;;;;;19.12;40.31;100765.94;5091089;27;45609;-60
2022/06/03 06:50:18;;;;;;;;;6.00;6.00;;;;;19.16;40.25;100764.78;5107965;27;46229;-59
2022/06/03 06:52:50;;;;;;;;;7.00;6.00;;;;;19.20;40.00;100760.13;5119390;27;45798;-59
2022/06/03 06:55:46;;;;;;;;;7.75;6.00;;;;;19.23;40.31;100754.66;5118690;27;45383;-53
2022/06/03 06:58:45;;;;;;;;;7.00;7.00;;;;;19.25;39.99;100763.34;5089282;27;45554;-61
2022/06/03 07:01:15;;;;;;;;;6.00;6.00;;;;;19.26;39.81;100762.38;5090562;27;45434;-60
2022/06/03 07:03:55;;;;;;;;;5.75;5.25;;;;;19.26;39.74;100757.09;5111716;27;45394;-60
2022/06/03 07:06:26;;;;;;;;;5.50;5.50;;;;;19.30;40.44;100755.09;5107491;27;45390;-63
2022/06/03 07:09:09;;;;;;;;;10.75;7.00;;;;;19.34;40.38;100751.31;5111430;27;45472;-59
2022/06/03 07:11:45;;;;;;;;;8.00;6.75;;;;;19.38;40.28;100754.63;5118223;27;45207;-58
2022/06/03 07:14:17;;;;;;;;;10.50;5.75;;;;;19.42;40.16;100756.13;5110286;27;45165;-59
2022/06/03 07:19:58;;;;;;;;;5.50;5.00;;;;;19.49;40.20;100763.59;5089226;27;45446;-60
2022/06/03 07:22:38;;;;;;;;;9.75;7.00;;;;;19.55;40.51;100759.72;5088406;27;45334;-60
2022/06/03 07:25:22;;;;;;;;;16.25;10.00;;;;;19.63;40.29;100753.91;5102540;27;45350;-60
2022/06/03 07:27:53;;;;;;;;;7.00;6.00;;;;;19.66;40.60;100749.22;5107767;27;45421;-60
2022/06/03 07:30:18;;;;;;;;;6.25;6.25;;;;;19.71;40.30;100744.47;5100445;27;45312;-60
2022/06/03 07:32:51;;;;;;;;;8.75;7.00;;;;;19.73;40.72;100752.34;5100659;27;45412;-60
2022/06/03 07:35:24;;;;;;;;;8.25;7.00;;;;;19.82;40.63;100756.25;5078360;27;45565;-60
2022/06/03 07:38:01;;;;;;;;;14.75;8.00;;;;;19.86;40.24;100747.97;5109759;27;46583;-61
2022/06/03 07:40:35;;;;;;;;;8.75;8.00;;;;;19.94;40.73;100767.84;5094071;27;45463;-60
2022/06/03 07:43:21;;;;;;;;;12.00;8.25;;;;;20.01;40.58;100756.72;5101436;27;46274;-60
2022/06/03 07:45:50;;;;;;;;;9.50;8.00;;;;;20.09;40.42;100773.00;5109618;27;45558;-60
2022/06/03 07:48:19;;;;;;;;;8.00;7.25;;;;;20.17;40.77;100779.59;5117835;27;45369;-60
2022/06/03 07:50:56;;;;;;;;;8.00;8.00;;;;;20.24;40.80;100779.09;5096943;27;45457;-60
2022/06/03 07:53:35;;;;;;;;;10.25;6.50;;;;;20.28;40.26;100785.91;5097097;27;45541;-54
2022/06/03 07:56:01;;;;;;;;;8.25;8.00;;;;;20.36;40.48;100790.72;5100663;27;45774;-53
2022/06/03 07:58:31;;;;;;;;;7.00;6.25;;;;;20.41;40.65;100787.75;5091509;27;45512;-54
2022/06/03 08:00:56;;;;;;;;;9.25;6.50;;;;;20.47;40.81;100782.03;5113640;27;45524;-51
2022/06/03 08:03:26;;;;;;;;;9.50;6.00;;;;;20.51;40.53;100780.03;5103197;27;46171;-53
2022/06/03 08:05:58;;;;;;;;;10.00;7.00;;;;;20.58;40.33;100779.47;5098207;27;45950;-54
2022/06/03 08:11:16;;;;;;;;;10.25;9.00;;;;;20.70;40.43;100772.50;5113069;27;45428;-53
2022/06/03 08:13:41;;;;;;;;;9.75;9.00;;;;;20.76;40.06;100776.56;5107694;27;46235;-51
2022/06/03 08:16:29;;;;;;;;;6.75;6.25;;;;;20.81;40.33;100769.09;5106481;27;45570;-53
2022/06/03 08:18:58;;;;;;;;;7.00;7.00;;;;;20.88;40.08;100780.19;5104700;27;45470;-54
2022/06/03 08:21:39;;;;;;;;;10.75;7.75;;;;;20.91;40.61;100778.16;5107187;27;45607;-53
2022/06/03 08:24:06;;;;;;;;;10.25;8.50;;;;;20.94;39.98;100780.56;5100809;27;46174;-52
2022/06/03 08:26:32;;;;;;;;;9.00;7.25;;;;;20.95;40.26;100779.63;5096575;27;45340;-50
2022/06/03 08:29:12;;;;;;;;;11.00;8.00;;;;;21.01;40.17;100771.19;5118801;27;45316;-53
2022/06/03 08:31:37;;;;;;;;;8.50;7.25;;;;;21.06;40.10;100770.91;5117069;27;45606;-60
2022/06/03 08:34:05;;;;;;;;;8.25;7.00;;;;;21.10;40.07;100774.19;5108003;27;52023;-60
2022/06/03 08:36:35;;;;;;;;;9.00;7.00;;;;;21.15;39.78;100777.38;5096813;27;45352;-60
2022/06/03 08:39:09;;;;;;;;;9.00;7.75;;;;;21.18;40.17;100762.03;5112276;27;45403;-60
2022/06/03 08:41:48;;;;;;;;;7.00;6.50;;;;;21.23;39.94;100754.59;5110566;27;45640;-60
2022/06/03 08:44:25;;;;;;;;;8.25;7.00;;;;;21.34;39.89;100752.97;5095761;27;46335;-61
2022/06/03 08:47:06;;;;;;;;;6.00;6.00;;;;;21.45;40.25;100750.38;5107181;27;45885;-61
2022/06/03 08:49:47;;;;;;;;;8.00;6.00;;;;;21.56;40.16;100758.44;5104558;27;45271;-61
2022/06/03 08:52:14;;;;;;;;;8.25;7.25;;;;;21.63;39.66;100748.19;5113485;27;45639;-60
2022/06/03 08:54:44;;;;;;;;;14.00;7.75;;;;;21.72;39.65;100750.19;5094952;27;45434;-60
2022/06/03 08:57:28;;;;;;;;;10.50;9.00;;;;;21.81;39.92;100746.00;5099164;27;45763;-60
2022/06/03 09:00:18;;;;;;;;;10.25;8.00;;;;;21.91;40.11;100747.00;5111778;27;45467;-61
2022/06/03 09:02:48;;;;;;;;;9.75;8.00;;;;;22.01;40.23;100739.19;5109333;27;45762;-60
2022/06/03 09:05:19;;;;;;;;;13.25;8.00;;;;;22.09;40.12;100747.44;5095423;27;45430;-60
2022/06/03 09:07:52;;;;;;;;;9.00;7.00;;;;;22.17;39.44;100734.41;5116739;27;45361;-60
2022/06/03 09:10:26;;;;;;;;;8.75;8.50;;;;;22.30;39.55;100746.81;5121966;27;45513;-61
2022/06/03 09:13:00;;;;;;;;;11.50;8.75;;;;;22.42;39.43;100739.72;5122352;27;45477;-60
2022/06/03 09:15:28;;;;;;;;;7.75;7.75;;;;;22.50;39.31;100732.78;5103522;27;45406;-60
2022/06/03 09:18:03;;;;;;;;;9.50;7.00;;;;;22.58;39.21;100731.38;5103628;27;45524;-60
2022/06/03 09:20:36;;;;;;;;;10.25;9.00;;;;;22.66;39.24;100734.28;5121412;27;45370;-60
2022/06/03 09:23:04;;;;;;;;;8.25;7.25;;;;;22.77;39.78;100744.09;5116418;27;45415;-60
2022/06/03 09:25:31;;;;;;;;;10.00;8.00;;;;;22.87;39.63;100745.09;5098814;27;45291;-60
2022/06/03 09:27:59;;;;;;;;;10.00;10.00;;;;;22.96;39.43;100730.16;5094659;27;45328;-60
2022/06/03 09:30:29;;;;;;;;;9.00;8.50;;;;;23.05;39.30;100740.97;5107890;27;45597;-60
2022/06/03 09:32:54;;;;;;;;;9.50;6.50;;;;;23.10;39.66;100738.78;5093741;27;45464;-60
2022/06/03 09:35:21;;;;;;;;;12.25;9.00;;;;;23.22;39.19;100750.31;5099373;27;69569;-60
2022/06/03 09:37:55;;;;;;;;;11.50;10.00;;;;;23.34;39.23;100752.97;5107646;27;69017;-61
2022/06/03 09:40:24;;;;;;;;;10.50;9.25;;;;;23.44;38.99;100756.59;5099877;27;45522;-61
2022/06/03 09:42:59;;;;;;;;;8.50;8.50;;;;;23.50;39.38;100759.63;5102033;27;45529;-61
2022/06/03 09:45:25;;;;;;;;;9.50;9.00;;;;;23.53;38.89;100761.19;5107204;27;45287;-61
2022/06/03 09:47:51;;;;;;;;;11.25;8.75;;;;;23.63;39.06;100772.00;5074839;27;45498;-60
2022/06/03 09:50:19;;;;;;;;;12.00;7.00;;;;;24.13;38.99;100784.84;5116138;27;45436;-60
2022/06/03 09:52:48;;;;;;;;;12.00;9.00;;;;;24.66;38.51;100775.97;5091439;27;45518;-60
2022/06/03 09:55:33;;;;;;;;;13.00;12.00;;;;;25.09;38.01;100785.59;5094790;27;46213;-60
2022/06/03 09:58:00;;;;;;;;;13.00;9.50;;;;;25.23;37.36;100792.44;5100403;27;45312;-61
2022/06/03 10:00:35;;;;;;;;;15.25;11.00;;;;;25.22;37.35;100796.13;5114835;27;45270;-61
2022/06/03 10:03:00;;;;;;;;;10.75;9.50;;;;;25.31;37.47;100779.25;5109100;27;45493;-61
2022/06/03 10:05:26;;;;;;;;;11.50;10.75;;;;;25.56;37.41;100770.72;5096347;27;63865;-61
2022/06/03 10:08:04;;;;;;;;;14.75;11.00;;;;;25.97;36.47;100786.72;5117783;27;45212;-61
2022/06/03 10:13:14;;;;;;;;;12.25;10.00;;;;;26.44;35.98;100769.94;5106135;27;45335;-61
2022/06/03 10:15:56;;;;;;;;;13.75;10.50;;;;;26.32;36.03;100774.59;5097506;27;46226;-61
2022/06/03 10:18:40;;;;;;;;;14.50;11.00;;;;;26.21;36.09;100770.22;5101483;27;45799;-61
2022/06/03 10:21:05;;;;;;;;;16.75;13.50;;;;;26.10;36.66;100773.91;5104312;27;45387;-61
2022/06/03 10:23:34;;;;;;;;;14.00;12.00;;;;;25.96;36.75;100763.59;5120335;27;45403;-61
2022/06/03 10:26:01;;;;;;;;;12.25;10.50;;;;;25.79;37.06;100769.63;5119750;27;47037;-61
2022/06/03 10:28:32;;;;;;;;;13.50;12.00;;;;;25.63;37.24;100765.66;5118963;27;45866;-61
2022/06/03 10:31:00;;;;;;;;;9.25;9.25;;;;;25.53;37.33;100757.59;5102038;27;45422;-61
2022/06/03 10:33:26;;;;;;;;;14.00;12.50;;;;;25.43;37.70;100764.78;5115700;27;45425;-61
2022/06/03 10:35:51;;;;;;;;;12.50;9.75;;;;;25.29;37.78;100759.81;5121238;27;45917;-61
2022/06/03 10:38:21;;;;;;;;;12.75;10.75;;;;;25.24;38.22;100760.16;5115529;27;66069;-61
2022/06/03 10:40:51;;;;;;;;;12.00;12.00;;;;;25.20;37.99;100756.91;5111972;27;45480;-61
2022/06/03 10:43:36;;;;;;;;;14.50;12.50;;;;;25.23;38.16;100763.81;5112583;27;45455;-61
2022/06/03 10:46:17;;;;;;;;;11.50;11.00;;;;;25.25;37.97;100769.94;5112689;27;45448;-61
2022/06/03 10:48:44;;;;;;;;;12.25;11.25;;;;;25.43;37.90;100763.91;5115303;27;45818;-62
2022/06/03 10:51:15;;;;;;;;;12.00;11.50;;;;;25.53;37.95;100762.97;5085358;27;45316;-61
2022/06/03 11:02:03;;;;;;;;;15.00;13.25;;;;;26.10;37.28;100754.25;5116466;27;45682;-61
2022/06/03 11:04:38;;;;;;;;;17.00;13.00;;;;;26.21;37.24;100750.63;5117489;27;45480;-60
2022/06/03 11:07:22;;;;;;;;;13.50;12.75;;;;;26.47;37.45;100756.19;5099970;27;46478;-61
2022/06/03 11:10:01;;;;;;;;;13.75;12.25;;;;;26.73;37.04;100761.81;5117074;27;45485;-61
2022/06/03 11:12:28;;;;;;;;;12.00;11.00;;;;;26.97;36.76;100765.81;5114655;27;45493;-60
2022/06/03 11:14:54;;;;;;;;;13.50;12.00;;;;;27.21;36.68;100768.00;5093566;27;45309;-60
2022/06/03 11:17:21;;;;;;;;;13.75;12.00;;;;;27.33;36.67;100779.44;5104940;27;64915;-61
2022/06/03 11:19:48;;;;;;;;;14.00;11.00;;;;;27.17;36.41;100778.19;5110303;27;45774;-60
2022/06/03 11:22:34;;;;;;;;;16.75;13.75;;;;;27.07;36.71;100782.75;5120065;27;45317;-61
2022/06/03 11:25:21;;;;;;;;;12.75;11.00;;;;;26.95;37.22;100778.56;5108392;27;45273;-62
2022/06/03 11:28:14;;;;;;;;;14.50;12.75;;;;;26.77;37.08;100789.22;5099372;27;46085;-62
2022/06/03 11:31:15;;;;;;;;;31.25;27.25;;;;;26.61;37.15;100796.03;5113672;27;45314;-60
2022/06/03 11:33:56;;;;;;;;;22.00;19.00;;;;;26.48;37.90;100795.47;5050568;27;45500;-61
2022/06/03 11:36:29;;;;;;;;;20.00;16.75;;;;;26.31;38.42;100789.84;5108222;27;45491;-61
2022/06/03 11:39:01;;;;;;;;;21.50;19.50;;;;;26.18;38.33;100791.13;5095385;27;45434;-61
2022/06/03 11:41:34;;;;;;;;;21.50;19.00;;;;;26.06;38.75;100790.41;5100684;27;45881;-61
2022/06/03 11:44:13;;;;;;;;;17.25;16.75;;;;;25.93;39.27;100790.66;5099299;27;45397;-61
2022/06/03 11:46:55;;;;;;;;;33.50;28.50;;;;;25.76;39.23;100790.38;5118567;27;45405;-61
2022/06/03 11:49:21;;;;;;;;;42.75;34.25;;;;;25.66;39.48;100802.06;5099351;27;45520;-61
2022/06/03 11:51:47;;;;;;;;;39.25;34.50;;;;;25.55;39.80;100798.50;5111558;27;45289;-61
2022/06/03 11:54:16;;;;;;;;;42.00;34.25;;;;;25.45;39.99;100796.78;5110526;27;45238;-61
2022/06/03 11:56:46;;;;;;;;;26.00;19.00;;;;;25.32;40.45;100797.88;5116650;27;45263;-61
2022/06/03 11:59:34;;;;;;;;;17.75;16.25;;;;;25.18;40.68;100799.06;5101693;27;47035;-61
2022/06/03 12:02:10;;;;;;;;;19.50;16.25;;;;;25.07;40.88;100799.13;5108004;27;46076;-61
2022/06/03 12:04:57;;;;;;;;;10.00;10.00;;;;;24.94;41.15;100798.53;5115602;27;45224;-61
2022/06/03 12:07:36;;;;;;;;;19.75;18.25;;;;;24.84;42.14;100801.13;5119125;27;45288;-61
2022/06/03 12:10:06;;;;;;;;;15.75;15.00;;;;;24.75;42.42;100796.56;5107265;27;45392;-61
2022/06/03 12:15:31;;;;;;;;;16.50;16.25;;;;;24.62;43.04;100800.31;5102797;27;45327;-62
2022/06/03 12:17:57;;;;;;;;;30.00;25.00;;;;;24.55;43.51;100798.28;5111551;27;45505;-62
2022/06/03 12:20:29;;;;;;;;;23.25;19.00;;;;;24.50;43.98;100805.81;5088173;27;46374;-61
2022/06/03 12:22:54;;;;;;;;;49.50;39.00;;;;;24.43;43.60;100800.13;5099459;27;45510;-61
2022/06/03 12:25:32;;;;;;;;;44.00;36.50;;;;;24.36;43.72;100809.66;5107131;27;66320;-61
2022/06/03 12:27:59;;;;;;;;;32.50;29.00;;;;;24.29;44.38;100812.00;5108705;27;45581;-61
2022/06/03 12:30:34;;;;;;;;;26.50;20.75;;;;;24.22;45.30;100808.13;5107468;27;45296;-61
2022/06/03 12:33:07;;;;;;;;;21.50;19.00;;;;;24.14;45.38;100810.63;5117278;27;45854;-62
2022/06/03 12:35:47;;;;;;;;;26.25;22.25;;;;;24.02;46.80;100801.78;5106486;27;45386;-61
2022/06/03 12:38:19;;;;;;;;;20.25;17.75;;;;;23.93;46.89;100808.75;5118486;27;45516;-61
2022/06/03 12:40:48;;;;;;;;;22.75;19.50;;;;;23.82;47.38;100819.47;5110823;27;46249;-61
2022/06/03 12:43:29;;;;;;;;;16.50;16.50;;;;;23.67;47.98;100810.84;5093428;27;45364;-63
2022/06/03 12:45:58;;;;;;;;;20.25;16.75;;;;;23.55;47.88;100809.16;5110590;27;45385;-61